sensor_id;sensor_type;location;lat;lon;timestamp;temperature;humidity
54684;DHT22;40582;53.100;6.686;2022-10-26T00:01:11;10.50;99.90
54684;DHT22;40582;53.100;6.686;2022-10-26T00:03:38;10.50;99.90
54684;DHT22;40582;53.100;6.686;2022-10-26T00:06:07;10.50;99.90
54684;DHT22;40582;53.100;6.686;2022-10-26T00:08:33;10.50;99.90
54684;DHT22;40582;53.100;6.686;2022-10-26T00:10:59;10.50;99.90
54684;DHT22;40582;53.100;6.686;2022-10-26T00:13:24;10.50;99.90
54684;DHT22;40582;53.100;6.686;2022-10-26T00:15:50;10.40;99.90
54684;DHT22;40582;53.100;6.686;2022-10-26T00:18:16;10.50;99.90
54684;DHT22;40582;53.100;6.686;2022-10-26T00:20:42;10.40;99.90
54684;DHT22;40582;53.100;6.686;2022-10-26T00:23:07;10.40;99.90
54684;DHT22;40582;53.100;6.686;2022-10-26T00:25:33;10.40;99.90
54684;DHT22;40582;53.100;6.686;2022-10-26T00:27:59;10.40;99.90
54684;DHT22;40582;53.100;6.686;2022-10-26T00:30:25;10.40;99.90
54684;DHT22;40582;53.100;6.686;2022-10-26T00:32:50;10.40;99.90
54684;DHT22;40582;53.100;6.686;2022-10-26T00:35:16;10.40;99.90
54684;DHT22;40582;53.100;6.686;2022-10-26T00:37:42;10.40;99.90
54684;DHT22;40582;53.100;6.686;2022-10-26T00:40:08;10.40;99.90
54684;DHT22;40582;53.100;6.686;2022-10-26T00:42:34;10.30;99.90
54684;DHT22;40582;53.100;6.686;2022-10-26T00:45:23;10.30;99.90
54684;DHT22;40582;53.100;6.686;2022-10-26T00:48:00;10.30;99.90
54684;DHT22;40582;53.100;6.686;2022-10-26T00:50:35;10.30;99.90
54684;DHT22;40582;53.100;6.686;2022-10-26T00:53:04;10.40;99.90
54684;DHT22;40582;53.100;6.686;2022-10-26T00:55:33;10.30;99.90
54684;DHT22;40582;53.100;6.686;2022-10-26T00:58:02;10.20;99.90
54684;DHT22;40582;53.100;6.686;2022-10-26T01:00:29;10.20;99.90
54684;DHT22;40582;53.100;6.686;2022-10-26T01:02:56;10.10;99.90
54684;DHT22;40582;53.100;6.686;2022-10-26T01:05:24;10.10;99.90
54684;DHT22;40582;53.100;6.686;2022-10-26T01:07:50;10.00;99.90
54684;DHT22;40582;53.100;6.686;2022-10-26T01:10:17;10.00;99.90
54684;DHT22;40582;53.100;6.686;2022-10-26T01:12:43;9.90;99.90
54684;DHT22;40582;53.100;6.686;2022-10-26T01:15:10;9.80;99.90
54684;DHT22;40582;53.100;6.686;2022-10-26T01:23:40;9.60;99.90
54684;DHT22;40582;53.100;6.686;2022-10-26T01:25:54;9.50;99.90
54684;DHT22;40582;53.100;6.686;2022-10-26T01:31:52;9.40;99.90
54684;DHT22;40582;53.100;6.686;2022-10-26T01:34:43;9.40;99.90
54684;DHT22;40582;53.100;6.686;2022-10-26T01:37:11;9.40;99.90
54684;DHT22;40582;53.100;6.686;2022-10-26T01:39:43;9.40;99.90
54684;DHT22;40582;53.100;6.686;2022-10-26T01:42:11;9.40;99.90
54684;DHT22;40582;53.100;6.686;2022-10-26T01:44:45;9.30;99.90
54684;DHT22;40582;53.100;6.686;2022-10-26T01:47:14;9.30;99.90
54684;DHT22;40582;53.100;6.686;2022-10-26T01:49:52;9.40;99.90
54684;DHT22;40582;53.100;6.686;2022-10-26T01:52:20;9.40;99.90
54684;DHT22;40582;53.100;6.686;2022-10-26T01:54:45;9.30;99.90
54684;DHT22;40582;53.100;6.686;2022-10-26T01:57:14;9.30;99.90
54684;DHT22;40582;53.100;6.686;2022-10-26T02:05:46;9.20;99.90
54684;DHT22;40582;53.100;6.686;2022-10-26T02:08:35;9.20;99.90
54684;DHT22;40582;53.100;6.686;2022-10-26T02:21:43;9.10;99.90
54684;DHT22;40582;53.100;6.686;2022-10-26T02:24:10;9.10;99.90
54684;DHT22;40582;53.100;6.686;2022-10-26T02:26:38;9.00;99.90
54684;DHT22;40582;53.100;6.686;2022-10-26T02:29:08;9.00;99.90
54684;DHT22;40582;53.100;6.686;2022-10-26T02:31:36;9.10;99.90
54684;DHT22;40582;53.100;6.686;2022-10-26T02:34:07;9.10;99.90
54684;DHT22;40582;53.100;6.686;2022-10-26T02:36:35;9.10;99.90
54684;DHT22;40582;53.100;6.686;2022-10-26T02:39:03;9.00;99.90
54684;DHT22;40582;53.100;6.686;2022-10-26T02:41:31;9.10;99.90
54684;DHT22;40582;53.100;6.686;2022-10-26T02:44:18;9.10;99.90
54684;DHT22;40582;53.100;6.686;2022-10-26T02:46:46;9.10;99.90
54684;DHT22;40582;53.100;6.686;2022-10-26T02:49:12;9.00;99.90
54684;DHT22;40582;53.100;6.686;2022-10-26T02:51:43;9.00;99.90
54684;DHT22;40582;53.100;6.686;2022-10-26T02:54:18;9.00;99.90
54684;DHT22;40582;53.100;6.686;2022-10-26T02:56:56;8.90;99.90
54684;DHT22;40582;53.100;6.686;2022-10-26T02:59:26;8.90;99.90
54684;DHT22;40582;53.100;6.686;2022-10-26T03:01:53;8.80;99.90
54684;DHT22;40582;53.100;6.686;2022-10-26T03:04:19;8.80;99.90
54684;DHT22;40582;53.100;6.686;2022-10-26T03:06:52;8.80;99.90
54684;DHT22;40582;53.100;6.686;2022-10-26T03:09:18;8.70;99.90
54684;DHT22;40582;53.100;6.686;2022-10-26T03:11:44;8.80;99.90
54684;DHT22;40582;53.100;6.686;2022-10-26T03:14:09;8.80;99.90
54684;DHT22;40582;53.100;6.686;2022-10-26T03:16:35;8.90;99.90
54684;DHT22;40582;53.100;6.686;2022-10-26T03:19:00;9.00;99.90
54684;DHT22;40582;53.100;6.686;2022-10-26T03:21:26;9.00;99.90
54684;DHT22;40582;53.100;6.686;2022-10-26T03:23:53;9.10;99.90
54684;DHT22;40582;53.100;6.686;2022-10-26T03:26:19;9.00;99.90
54684;DHT22;40582;53.100;6.686;2022-10-26T03:28:45;9.00;99.90
54684;DHT22;40582;53.100;6.686;2022-10-26T03:31:10;9.00;99.90
54684;DHT22;40582;53.100;6.686;2022-10-26T03:33:36;9.00;99.90
54684;DHT22;40582;53.100;6.686;2022-10-26T03:36:02;9.00;99.90
54684;DHT22;40582;53.100;6.686;2022-10-26T03:38:28;8.90;99.90
54684;DHT22;40582;53.100;6.686;2022-10-26T03:40:54;8.90;99.90
54684;DHT22;40582;53.100;6.686;2022-10-26T03:43:20;8.90;99.90
54684;DHT22;40582;53.100;6.686;2022-10-26T03:45:46;8.90;99.90
54684;DHT22;40582;53.100;6.686;2022-10-26T03:48:12;9.00;99.90
54684;DHT22;40582;53.100;6.686;2022-10-26T03:50:38;8.90;99.90
54684;DHT22;40582;53.100;6.686;2022-10-26T03:53:04;8.90;99.90
54684;DHT22;40582;53.100;6.686;2022-10-26T03:55:29;8.90;99.90
54684;DHT22;40582;53.100;6.686;2022-10-26T03:57:55;8.90;99.90
54684;DHT22;40582;53.100;6.686;2022-10-26T04:00:20;8.90;99.90
54684;DHT22;40582;53.100;6.686;2022-10-26T04:02:53;8.90;99.90
54684;DHT22;40582;53.100;6.686;2022-10-26T04:05:19;8.90;99.90
54684;DHT22;40582;53.100;6.686;2022-10-26T04:07:54;8.90;99.90
54684;DHT22;40582;53.100;6.686;2022-10-26T04:10:21;8.90;99.90
54684;DHT22;40582;53.100;6.686;2022-10-26T04:12:47;8.90;99.90
54684;DHT22;40582;53.100;6.686;2022-10-26T04:15:12;8.90;99.90
54684;DHT22;40582;53.100;6.686;2022-10-26T04:17:38;8.90;99.90
54684;DHT22;40582;53.100;6.686;2022-10-26T04:20:04;8.80;99.90
54684;DHT22;40582;53.100;6.686;2022-10-26T04:22:30;8.90;99.90
54684;DHT22;40582;53.100;6.686;2022-10-26T04:24:56;8.90;99.90
54684;DHT22;40582;53.100;6.686;2022-10-26T04:27:21;9.00;99.90
54684;DHT22;40582;53.100;6.686;2022-10-26T04:29:47;9.00;99.90
54684;DHT22;40582;53.100;6.686;2022-10-26T04:32:12;9.10;99.90
54684;DHT22;40582;53.100;6.686;2022-10-26T04:34:38;9.10;99.90
54684;DHT22;40582;53.100;6.686;2022-10-26T04:37:04;9.10;99.90
54684;DHT22;40582;53.100;6.686;2022-10-26T04:39:29;9.10;99.90
54684;DHT22;40582;53.100;6.686;2022-10-26T04:41:55;9.10;99.90
54684;DHT22;40582;53.100;6.686;2022-10-26T04:44:21;9.10;99.90
54684;DHT22;40582;53.100;6.686;2022-10-26T04:46:46;9.10;99.90
54684;DHT22;40582;53.100;6.686;2022-10-26T04:49:12;9.10;99.90
54684;DHT22;40582;53.100;6.686;2022-10-26T04:51:38;9.20;99.90
54684;DHT22;40582;53.100;6.686;2022-10-26T04:54:03;9.20;99.90
54684;DHT22;40582;53.100;6.686;2022-10-26T04:56:29;9.80;99.90
54684;DHT22;40582;53.100;6.686;2022-10-26T04:58:55;9.40;99.90
54684;DHT22;40582;53.100;6.686;2022-10-26T05:01:21;9.40;99.90
54684;DHT22;40582;53.100;6.686;2022-10-26T05:03:53;9.50;99.90
54684;DHT22;40582;53.100;6.686;2022-10-26T05:06:19;9.50;99.90
54684;DHT22;40582;53.100;6.686;2022-10-26T05:08:45;9.50;99.90
54684;DHT22;40582;53.100;6.686;2022-10-26T05:11:11;9.50;99.90
54684;DHT22;40582;53.100;6.686;2022-10-26T05:13:37;9.50;99.90
54684;DHT22;40582;53.100;6.686;2022-10-26T05:16:03;9.40;99.90
54684;DHT22;40582;53.100;6.686;2022-10-26T05:18:29;9.40;99.90
54684;DHT22;40582;53.100;6.686;2022-10-26T05:20:54;9.40;99.90
54684;DHT22;40582;53.100;6.686;2022-10-26T05:23:21;9.70;99.90
54684;DHT22;40582;53.100;6.686;2022-10-26T05:25:47;9.50;99.90
54684;DHT22;40582;53.100;6.686;2022-10-26T05:28:13;9.50;99.90
54684;DHT22;40582;53.100;6.686;2022-10-26T05:30:41;9.60;99.90
54684;DHT22;40582;53.100;6.686;2022-10-26T05:33:09;9.60;99.90
54684;DHT22;40582;53.100;6.686;2022-10-26T05:35:35;9.50;99.90
54684;DHT22;40582;53.100;6.686;2022-10-26T05:40:33;9.60;99.90
54684;DHT22;40582;53.100;6.686;2022-10-26T05:43:00;9.60;99.90
54684;DHT22;40582;53.100;6.686;2022-10-26T05:45:29;9.60;99.90
54684;DHT22;40582;53.100;6.686;2022-10-26T05:47:54;9.60;99.90
54684;DHT22;40582;53.100;6.686;2022-10-26T05:50:20;9.70;99.90
54684;DHT22;40582;53.100;6.686;2022-10-26T05:52:47;9.70;99.90
54684;DHT22;40582;53.100;6.686;2022-10-26T05:55:15;9.70;99.90
54684;DHT22;40582;53.100;6.686;2022-10-26T05:57:41;9.60;99.90
54684;DHT22;40582;53.100;6.686;2022-10-26T06:00:11;9.60;99.90
54684;DHT22;40582;53.100;6.686;2022-10-26T06:03:07;9.60;99.90
54684;DHT22;40582;53.100;6.686;2022-10-26T06:08:19;9.70;99.90
54684;DHT22;40582;53.100;6.686;2022-10-26T06:10:45;9.70;99.90
54684;DHT22;40582;53.100;6.686;2022-10-26T06:13:11;9.70;99.90
54684;DHT22;40582;53.100;6.686;2022-10-26T06:18:29;9.70;99.90
54684;DHT22;40582;53.100;6.686;2022-10-26T06:24:08;9.80;99.90
54684;DHT22;40582;53.100;6.686;2022-10-26T06:26:53;9.90;99.90
54684;DHT22;40582;53.100;6.686;2022-10-26T06:32:01;9.90;99.90
54684;DHT22;40582;53.100;6.686;2022-10-26T06:34:32;9.90;99.90
54684;DHT22;40582;53.100;6.686;2022-10-26T06:37:00;9.90;99.90
54684;DHT22;40582;53.100;6.686;2022-10-26T06:39:28;9.90;99.90
54684;DHT22;40582;53.100;6.686;2022-10-26T06:41:56;10.00;99.90
54684;DHT22;40582;53.100;6.686;2022-10-26T06:44:23;10.00;99.90
54684;DHT22;40582;53.100;6.686;2022-10-26T06:46:54;10.00;99.90
54684;DHT22;40582;53.100;6.686;2022-10-26T06:49:34;10.10;99.90
54684;DHT22;40582;53.100;6.686;2022-10-26T06:54:47;10.20;99.90
54684;DHT22;40582;53.100;6.686;2022-10-26T06:57:18;10.20;99.90
54684;DHT22;40582;53.100;6.686;2022-10-26T07:00:01;10.20;99.90
54684;DHT22;40582;53.100;6.686;2022-10-26T07:02:27;10.30;99.90
54684;DHT22;40582;53.100;6.686;2022-10-26T07:04:53;10.30;99.90
54684;DHT22;40582;53.100;6.686;2022-10-26T07:07:29;10.30;99.90
54684;DHT22;40582;53.100;6.686;2022-10-26T07:09:55;10.30;99.90
54684;DHT22;40582;53.100;6.686;2022-10-26T07:12:21;10.40;99.90
54684;DHT22;40582;53.100;6.686;2022-10-26T07:14:46;10.40;99.90
54684;DHT22;40582;53.100;6.686;2022-10-26T07:17:12;10.50;99.90
54684;DHT22;40582;53.100;6.686;2022-10-26T07:19:38;10.50;99.90
54684;DHT22;40582;53.100;6.686;2022-10-26T07:22:05;10.60;99.90
54684;DHT22;40582;53.100;6.686;2022-10-26T07:24:31;10.60;99.90
54684;DHT22;40582;53.100;6.686;2022-10-26T07:26:57;10.70;99.90
54684;DHT22;40582;53.100;6.686;2022-10-26T07:29:24;10.70;99.90
54684;DHT22;40582;53.100;6.686;2022-10-26T07:31:50;10.80;99.90
54684;DHT22;40582;53.100;6.686;2022-10-26T07:34:16;10.80;99.90
54684;DHT22;40582;53.100;6.686;2022-10-26T07:36:42;10.90;99.90
54684;DHT22;40582;53.100;6.686;2022-10-26T07:39:08;11.00;99.90
54684;DHT22;40582;53.100;6.686;2022-10-26T07:41:33;11.00;99.90
54684;DHT22;40582;53.100;6.686;2022-10-26T07:43:59;11.10;99.90
54684;DHT22;40582;53.100;6.686;2022-10-26T07:46:25;11.10;99.90
54684;DHT22;40582;53.100;6.686;2022-10-26T07:48:52;11.20;99.90
54684;DHT22;40582;53.100;6.686;2022-10-26T07:51:18;11.20;99.90
54684;DHT22;40582;53.100;6.686;2022-10-26T07:53:44;11.30;99.90
54684;DHT22;40582;53.100;6.686;2022-10-26T07:56:11;11.30;99.90
54684;DHT22;40582;53.100;6.686;2022-10-26T07:58:37;11.40;99.90
54684;DHT22;40582;53.100;6.686;2022-10-26T08:01:11;11.50;99.90
54684;DHT22;40582;53.100;6.686;2022-10-26T08:03:37;11.60;99.90
54684;DHT22;40582;53.100;6.686;2022-10-26T08:06:02;11.60;99.90
54684;DHT22;40582;53.100;6.686;2022-10-26T08:08:30;11.70;99.90
54684;DHT22;40582;53.100;6.686;2022-10-26T08:10:57;11.70;99.90
54684;DHT22;40582;53.100;6.686;2022-10-26T08:13:23;11.80;99.90
54684;DHT22;40582;53.100;6.686;2022-10-26T08:15:48;11.90;99.90
54684;DHT22;40582;53.100;6.686;2022-10-26T08:18:14;12.00;99.90
54684;DHT22;40582;53.100;6.686;2022-10-26T08:20:40;12.10;99.90
54684;DHT22;40582;53.100;6.686;2022-10-26T08:23:05;12.20;99.90
54684;DHT22;40582;53.100;6.686;2022-10-26T08:25:33;12.30;99.90
54684;DHT22;40582;53.100;6.686;2022-10-26T08:28:02;12.40;99.90
54684;DHT22;40582;53.100;6.686;2022-10-26T08:30:32;12.40;99.90
54684;DHT22;40582;53.100;6.686;2022-10-26T08:32:59;12.50;99.90
54684;DHT22;40582;53.100;6.686;2022-10-26T08:35:25;12.50;99.90
54684;DHT22;40582;53.100;6.686;2022-10-26T08:37:52;12.50;99.90
54684;DHT22;40582;53.100;6.686;2022-10-26T08:40:20;12.40;99.90
54684;DHT22;40582;53.100;6.686;2022-10-26T08:42:49;12.30;99.90
54684;DHT22;40582;53.100;6.686;2022-10-26T08:45:30;12.20;99.90
54684;DHT22;40582;53.100;6.686;2022-10-26T08:48:00;12.10;99.90
54684;DHT22;40582;53.100;6.686;2022-10-26T08:50:35;12.10;99.90
54684;DHT22;40582;53.100;6.686;2022-10-26T08:55:51;12.00;99.90
54684;DHT22;40582;53.100;6.686;2022-10-26T08:58:21;12.10;99.90
54684;DHT22;40582;53.100;6.686;2022-10-26T09:00:49;12.10;99.90
54684;DHT22;40582;53.100;6.686;2022-10-26T09:03:17;12.10;99.90
54684;DHT22;40582;53.100;6.686;2022-10-26T09:08:31;12.30;99.90
54684;DHT22;40582;53.100;6.686;2022-10-26T09:13:58;12.40;99.90
54684;DHT22;40582;53.100;6.686;2022-10-26T09:24:21;12.70;99.90
54684;DHT22;40582;53.100;6.686;2022-10-26T09:26:55;12.80;99.90
54684;DHT22;40582;53.100;6.686;2022-10-26T09:29:27;12.90;99.90
54684;DHT22;40582;53.100;6.686;2022-10-26T09:31:55;12.90;99.90
54684;DHT22;40582;53.100;6.686;2022-10-26T09:34:36;13.00;99.90
54684;DHT22;40582;53.100;6.686;2022-10-26T09:37:22;13.00;99.90
54684;DHT22;40582;53.100;6.686;2022-10-26T09:45:32;13.20;99.90
54684;DHT22;40582;53.100;6.686;2022-10-26T09:48:33;13.30;99.90
54684;DHT22;40582;53.100;6.686;2022-10-26T09:50:59;13.30;99.90
54684;DHT22;40582;53.100;6.686;2022-10-26T09:53:26;13.40;99.90
54684;DHT22;40582;53.100;6.686;2022-10-26T09:56:00;13.50;99.90
54684;DHT22;40582;53.100;6.686;2022-10-26T09:58:29;13.50;99.90
54684;DHT22;40582;53.100;6.686;2022-10-26T10:00:56;13.60;99.90
54684;DHT22;40582;53.100;6.686;2022-10-26T10:03:30;13.70;99.90
54684;DHT22;40582;53.100;6.686;2022-10-26T10:06:17;13.80;99.90
54684;DHT22;40582;53.100;6.686;2022-10-26T10:08:44;13.80;99.90
54684;DHT22;40582;53.100;6.686;2022-10-26T10:11:40;13.90;99.90
54684;DHT22;40582;53.100;6.686;2022-10-26T10:14:12;14.00;99.90
54684;DHT22;40582;53.100;6.686;2022-10-26T10:16:40;14.20;99.90
54684;DHT22;40582;53.100;6.686;2022-10-26T10:19:21;14.40;99.90
54684;DHT22;40582;53.100;6.686;2022-10-26T10:21:51;14.50;99.90
54684;DHT22;40582;53.100;6.686;2022-10-26T10:24:28;14.60;99.90
54684;DHT22;40582;53.100;6.686;2022-10-26T10:27:07;14.70;99.90
54684;DHT22;40582;53.100;6.686;2022-10-26T10:29:45;14.80;99.90
54684;DHT22;40582;53.100;6.686;2022-10-26T10:32:15;15.00;99.90
54684;DHT22;40582;53.100;6.686;2022-10-26T10:34:42;15.10;99.90
54684;DHT22;40582;53.100;6.686;2022-10-26T10:40:18;15.30;99.90
54684;DHT22;40582;53.100;6.686;2022-10-26T10:42:46;15.40;99.90
54684;DHT22;40582;53.100;6.686;2022-10-26T10:45:23;15.50;99.90
54684;DHT22;40582;53.100;6.686;2022-10-26T10:50:31;15.70;99.90
54684;DHT22;40582;53.100;6.686;2022-10-26T10:53:18;15.80;99.90
54684;DHT22;40582;53.100;6.686;2022-10-26T11:01:37;16.10;99.90
54684;DHT22;40582;53.100;6.686;2022-10-26T11:04:40;16.20;99.90
54684;DHT22;40582;53.100;6.686;2022-10-26T11:07:09;16.30;99.90
54684;DHT22;40582;53.100;6.686;2022-10-26T11:09:38;16.40;99.90
54684;DHT22;40582;53.100;6.686;2022-10-26T11:12:15;16.40;99.90
54684;DHT22;40582;53.100;6.686;2022-10-26T11:14:44;16.50;99.90
54684;DHT22;40582;53.100;6.686;2022-10-26T11:17:18;16.60;99.90
54684;DHT22;40582;53.100;6.686;2022-10-26T11:19:58;16.70;99.90
54684;DHT22;40582;53.100;6.686;2022-10-26T11:22:32;16.80;99.90
54684;DHT22;40582;53.100;6.686;2022-10-26T11:25:06;16.90;99.90
54684;DHT22;40582;53.100;6.686;2022-10-26T11:27:45;17.00;99.90
54684;DHT22;40582;53.100;6.686;2022-10-26T11:30:45;17.10;99.90
54684;DHT22;40582;53.100;6.686;2022-10-26T11:33:08;17.30;99.90
54684;DHT22;40582;53.100;6.686;2022-10-26T11:38:33;17.50;99.90
54684;DHT22;40582;53.100;6.686;2022-10-26T11:43:52;17.40;99.90
54684;DHT22;40582;53.100;6.686;2022-10-26T11:46:35;17.40;99.90
54684;DHT22;40582;53.100;6.686;2022-10-26T11:49:16;17.40;99.90
54684;DHT22;40582;53.100;6.686;2022-10-26T11:54:19;17.50;99.90
54684;DHT22;40582;53.100;6.686;2022-10-26T11:56:49;17.50;99.90
54684;DHT22;40582;53.100;6.686;2022-10-26T11:59:23;17.60;99.90
54684;DHT22;40582;53.100;6.686;2022-10-26T12:01:52;17.70;99.90
54684;DHT22;40582;53.100;6.686;2022-10-26T12:04:22;17.80;99.90
54684;DHT22;40582;53.100;6.686;2022-10-26T12:06:50;17.80;99.90
54684;DHT22;40582;53.100;6.686;2022-10-26T12:09:29;17.90;99.90
54684;DHT22;40582;53.100;6.686;2022-10-26T12:12:18;18.00;99.90
54684;DHT22;40582;53.100;6.686;2022-10-26T12:15:01;18.00;99.90
54684;DHT22;40582;53.100;6.686;2022-10-26T12:17:45;18.10;99.90
54684;DHT22;40582;53.100;6.686;2022-10-26T12:23:17;18.10;99.90
54684;DHT22;40582;53.100;6.686;2022-10-26T12:25:43;18.10;99.90
54684;DHT22;40582;53.100;6.686;2022-10-26T12:33:56;18.30;99.90
54684;DHT22;40582;53.100;6.686;2022-10-26T12:47:09;18.40;99.90
54684;DHT22;40582;53.100;6.686;2022-10-26T12:49:58;18.30;99.90
54684;DHT22;40582;53.100;6.686;2022-10-26T13:00:22;17.90;99.90
54684;DHT22;40582;53.100;6.686;2022-10-26T13:03:10;17.80;99.90
54684;DHT22;40582;53.100;6.686;2022-10-26T13:08:49;17.90;99.90
54684;DHT22;40582;53.100;6.686;2022-10-26T13:11:26;17.80;99.90
54684;DHT22;40582;53.100;6.686;2022-10-26T13:14:02;17.80;99.90
54684;DHT22;40582;53.100;6.686;2022-10-26T13:16:30;17.70;99.90
54684;DHT22;40582;53.100;6.686;2022-10-26T13:18:56;17.60;99.90
54684;DHT22;40582;53.100;6.686;2022-10-26T13:21:23;17.50;99.90
54684;DHT22;40582;53.100;6.686;2022-10-26T13:26:21;17.40;99.90
54684;DHT22;40582;53.100;6.686;2022-10-26T13:33:43;17.50;99.90
54684;DHT22;40582;53.100;6.686;2022-10-26T13:39:09;17.50;99.90
54684;DHT22;40582;53.100;6.686;2022-10-26T13:41:38;17.60;99.90
54684;DHT22;40582;53.100;6.686;2022-10-26T13:44:06;17.50;99.90
54684;DHT22;40582;53.100;6.686;2022-10-26T13:46:37;17.50;99.90
54684;DHT22;40582;53.100;6.686;2022-10-26T13:49:17;17.50;99.90
54684;DHT22;40582;53.100;6.686;2022-10-26T13:51:48;17.50;99.90
54684;DHT22;40582;53.100;6.686;2022-10-26T13:59:37;17.40;99.90
54684;DHT22;40582;53.100;6.686;2022-10-26T14:02:22;17.20;99.90
54684;DHT22;40582;53.100;6.686;2022-10-26T14:05:04;17.10;99.90
54684;DHT22;40582;53.100;6.686;2022-10-26T14:10:35;17.00;99.90
54684;DHT22;40582;53.100;6.686;2022-10-26T14:13:06;17.00;99.90
54684;DHT22;40582;53.100;6.686;2022-10-26T14:15:33;16.90;99.90
54684;DHT22;40582;53.100;6.686;2022-10-26T14:18:01;16.80;99.90
54684;DHT22;40582;53.100;6.686;2022-10-26T14:20:29;16.70;99.90
54684;DHT22;40582;53.100;6.686;2022-10-26T14:22:55;16.70;99.90
54684;DHT22;40582;53.100;6.686;2022-10-26T14:25:27;16.60;99.90
54684;DHT22;40582;53.100;6.686;2022-10-26T14:27:53;16.60;99.90
54684;DHT22;40582;53.100;6.686;2022-10-26T14:30:31;16.50;99.90
54684;DHT22;40582;53.100;6.686;2022-10-26T14:32:57;16.40;99.90
54684;DHT22;40582;53.100;6.686;2022-10-26T14:35:41;16.40;99.90
54684;DHT22;40582;53.100;6.686;2022-10-26T14:38:18;16.30;99.90
54684;DHT22;40582;53.100;6.686;2022-10-26T14:40:47;16.30;99.90
54684;DHT22;40582;53.100;6.686;2022-10-26T14:43:19;16.20;99.90
54684;DHT22;40582;53.100;6.686;2022-10-26T14:45:48;16.20;99.90
54684;DHT22;40582;53.100;6.686;2022-10-26T14:48:42;16.10;99.90
54684;DHT22;40582;53.100;6.686;2022-10-26T14:51:17;16.00;99.90
54684;DHT22;40582;53.100;6.686;2022-10-26T14:53:49;15.90;99.90
54684;DHT22;40582;53.100;6.686;2022-10-26T14:59:10;15.80;99.90
54684;DHT22;40582;53.100;6.686;2022-10-26T15:04:41;15.70;99.90
54684;DHT22;40582;53.100;6.686;2022-10-26T15:07:20;15.60;99.90
54684;DHT22;40582;53.100;6.686;2022-10-26T15:09:47;15.60;99.90
54684;DHT22;40582;53.100;6.686;2022-10-26T15:14:43;15.50;99.90
54684;DHT22;40582;53.100;6.686;2022-10-26T15:17:20;15.50;99.90
54684;DHT22;40582;53.100;6.686;2022-10-26T15:19:46;15.50;99.90
54684;DHT22;40582;53.100;6.686;2022-10-26T15:22:23;15.40;99.90
54684;DHT22;40582;53.100;6.686;2022-10-26T15:24:52;15.40;99.90
54684;DHT22;40582;53.100;6.686;2022-10-26T15:27:21;15.40;99.90
54684;DHT22;40582;53.100;6.686;2022-10-26T15:29:51;15.40;99.90
54684;DHT22;40582;53.100;6.686;2022-10-26T15:32:32;15.40;99.90
54684;DHT22;40582;53.100;6.686;2022-10-26T15:37:39;15.30;99.90
54684;DHT22;40582;53.100;6.686;2022-10-26T15:40:05;15.30;99.90
54684;DHT22;40582;53.100;6.686;2022-10-26T15:42:31;15.30;99.90
54684;DHT22;40582;53.100;6.686;2022-10-26T15:44:58;15.40;99.90
54684;DHT22;40582;53.100;6.686;2022-10-26T15:47:28;15.40;99.90
54684;DHT22;40582;53.100;6.686;2022-10-26T15:49:54;15.50;99.90
54684;DHT22;40582;53.100;6.686;2022-10-26T15:52:20;15.50;99.90
54684;DHT22;40582;53.100;6.686;2022-10-26T15:54:46;15.60;99.90
54684;DHT22;40582;53.100;6.686;2022-10-26T15:57:13;15.50;99.90
54684;DHT22;40582;53.100;6.686;2022-10-26T15:59:39;15.40;99.90
54684;DHT22;40582;53.100;6.686;2022-10-26T16:02:12;15.30;99.90
54684;DHT22;40582;53.100;6.686;2022-10-26T16:04:38;15.30;99.90
54684;DHT22;40582;53.100;6.686;2022-10-26T16:07:04;15.20;99.90
54684;DHT22;40582;53.100;6.686;2022-10-26T16:09:32;14.90;99.90
54684;DHT22;40582;53.100;6.686;2022-10-26T16:11:57;15.10;99.90
54684;DHT22;40582;53.100;6.686;2022-10-26T16:14:23;15.10;99.90
54684;DHT22;40582;53.100;6.686;2022-10-26T16:16:49;15.00;99.90
54684;DHT22;40582;53.100;6.686;2022-10-26T16:19:14;15.00;99.90
54684;DHT22;40582;53.100;6.686;2022-10-26T16:21:40;15.00;99.90
54684;DHT22;40582;53.100;6.686;2022-10-26T16:24:06;15.00;99.90
54684;DHT22;40582;53.100;6.686;2022-10-26T16:26:32;14.90;99.90
54684;DHT22;40582;53.100;6.686;2022-10-26T16:28:58;14.90;99.90
54684;DHT22;40582;53.100;6.686;2022-10-26T16:31:23;14.90;99.90
54684;DHT22;40582;53.100;6.686;2022-10-26T16:33:49;14.90;99.90
54684;DHT22;40582;53.100;6.686;2022-10-26T16:36:15;14.80;99.90
54684;DHT22;40582;53.100;6.686;2022-10-26T16:38:40;14.90;99.90
54684;DHT22;40582;53.100;6.686;2022-10-26T16:41:11;14.90;99.90
54684;DHT22;40582;53.100;6.686;2022-10-26T16:43:42;15.00;99.90
54684;DHT22;40582;53.100;6.686;2022-10-26T16:46:19;15.00;99.90
54684;DHT22;40582;53.100;6.686;2022-10-26T16:48:48;15.10;99.90
54684;DHT22;40582;53.100;6.686;2022-10-26T16:53:41;15.20;99.90
54684;DHT22;40582;53.100;6.686;2022-10-26T16:56:12;15.20;99.90
54684;DHT22;40582;53.100;6.686;2022-10-26T16:58:39;15.30;99.90
54684;DHT22;40582;53.100;6.686;2022-10-26T17:01:05;15.30;99.90
54684;DHT22;40582;53.100;6.686;2022-10-26T17:03:32;15.40;99.90
54684;DHT22;40582;53.100;6.686;2022-10-26T17:05:59;15.40;99.90
54684;DHT22;40582;53.100;6.686;2022-10-26T17:08:26;15.40;99.90
54684;DHT22;40582;53.100;6.686;2022-10-26T17:10:53;15.40;99.90
54684;DHT22;40582;53.100;6.686;2022-10-26T17:13:20;15.30;99.90
54684;DHT22;40582;53.100;6.686;2022-10-26T17:15:46;15.20;99.90
54684;DHT22;40582;53.100;6.686;2022-10-26T17:18:12;15.20;99.90
54684;DHT22;40582;53.100;6.686;2022-10-26T17:20:39;15.00;99.90
54684;DHT22;40582;53.100;6.686;2022-10-26T17:23:05;15.00;99.90
54684;DHT22;40582;53.100;6.686;2022-10-26T17:25:34;14.90;99.90
54684;DHT22;40582;53.100;6.686;2022-10-26T17:28:01;14.80;99.90
54684;DHT22;40582;53.100;6.686;2022-10-26T17:30:27;14.80;99.90
54684;DHT22;40582;53.100;6.686;2022-10-26T17:32:53;14.70;99.90
54684;DHT22;40582;53.100;6.686;2022-10-26T17:35:19;14.70;99.90
54684;DHT22;40582;53.100;6.686;2022-10-26T17:37:45;14.60;99.90
54684;DHT22;40582;53.100;6.686;2022-10-26T17:40:11;14.60;99.90
54684;DHT22;40582;53.100;6.686;2022-10-26T17:42:37;14.50;99.90
54684;DHT22;40582;53.100;6.686;2022-10-26T17:45:02;14.50;99.90
54684;DHT22;40582;53.100;6.686;2022-10-26T17:47:28;14.40;99.90
54684;DHT22;40582;53.100;6.686;2022-10-26T17:49:54;14.40;99.90
54684;DHT22;40582;53.100;6.686;2022-10-26T17:52:19;14.30;99.90
54684;DHT22;40582;53.100;6.686;2022-10-26T17:54:49;14.30;99.90
54684;DHT22;40582;53.100;6.686;2022-10-26T17:57:15;14.30;99.90
54684;DHT22;40582;53.100;6.686;2022-10-26T17:59:40;14.30;99.90
54684;DHT22;40582;53.100;6.686;2022-10-26T18:02:08;14.40;99.90
54684;DHT22;40582;53.100;6.686;2022-10-26T18:04:34;14.40;99.90
54684;DHT22;40582;53.100;6.686;2022-10-26T18:07:00;14.30;99.90
54684;DHT22;40582;53.100;6.686;2022-10-26T18:09:25;14.30;99.90
54684;DHT22;40582;53.100;6.686;2022-10-26T18:11:51;14.30;99.90
54684;DHT22;40582;53.100;6.686;2022-10-26T18:14:17;14.30;99.90
54684;DHT22;40582;53.100;6.686;2022-10-26T18:16:42;14.30;99.90